Time;durP1;ratioP1;P1;durP2;ratioP2;P2;SDS_P1;SDS_P2;PMS_P1;PMS_P2;Temp;Humidity;BMP_temperature;BMP_pressure;BME280_temperature;BME280_humidity;BME280_pressure;Samples;Min_cycle;Max_cycle;Signal;HPM_P1;HPM_P2
2022/07/07 00:02:17;;;;;;;1.92;1.10;;;;;;;16.84;nan;101113.56;5006040;28;20054;-72
2022/07/07 00:04:42;;;;;;;3.17;1.50;;;;;;;16.78;nan;101112.41;5010165;28;20038;-72
2022/07/07 00:07:08;;;;;;;2.85;1.80;;;;;;;16.70;nan;101107.94;5009847;28;20033;-72
2022/07/07 00:09:33;;;;;;;3.08;1.50;;;;;;;16.67;nan;101107.47;5008299;28;20068;-72
2022/07/07 00:11:58;;;;;;;2.50;1.40;;;;;;;16.67;nan;101102.97;5007824;28;20030;-73
2022/07/07 00:14:24;;;;;;;2.05;1.30;;;;;;;16.68;nan;101096.59;5006501;28;20680;-72
2022/07/07 00:16:50;;;;;;;3.08;1.52;;;;;;;16.70;nan;101097.25;5007197;28;20038;-72
2022/07/07 00:19:15;;;;;;;2.22;1.58;;;;;;;16.67;nan;101100.28;5006579;28;20502;-72
2022/07/07 00:21:40;;;;;;;2.08;1.40;;;;;;;16.66;nan;101106.66;5007875;28;20034;-73
2022/07/07 00:24:06;;;;;;;1.80;1.35;;;;;;;16.65;nan;101096.13;5005859;28;20046;-72
2022/07/07 00:26:32;;;;;;;2.88;1.58;;;;;;;16.63;nan;101096.31;5007585;28;20034;-72
2022/07/07 00:28:57;;;;;;;3.35;1.60;;;;;;;16.65;nan;101098.81;5007791;28;20046;-72
2022/07/07 00:31:23;;;;;;;3.25;1.80;;;;;;;16.65;nan;101104.16;5006621;28;20060;-73
2022/07/07 00:33:48;;;;;;;2.38;1.90;;;;;;;16.63;nan;101100.81;5008688;28;20463;-72
2022/07/07 00:36:14;;;;;;;2.38;1.90;;;;;;;16.62;nan;101105.34;5009263;28;20085;-73
2022/07/07 00:38:40;;;;;;;4.82;2.17;;;;;;;16.61;nan;101102.84;5007524;28;20041;-72
2022/07/07 00:41:05;;;;;;;3.55;1.73;;;;;;;16.62;nan;101099.19;5006118;28;20034;-72
2022/07/07 00:43:39;;;;;;;3.20;1.48;;;;;;;16.64;nan;101100.66;5008580;28;20571;-72
2022/07/07 00:46:04;;;;;;;3.25;1.80;;;;;;;16.64;nan;101094.50;5004238;28;20085;-72
2022/07/07 00:48:32;;;;;;;3.55;1.90;;;;;;;16.64;nan;101095.31;5006856;28;20168;-73
2022/07/07 00:50:58;;;;;;;4.53;2.17;;;;;;;16.65;nan;101098.81;5007350;28;20395;-73
2022/07/07 00:53:24;;;;;;;2.70;1.80;;;;;;;16.64;nan;101087.31;5006900;28;20042;-72
2022/07/07 00:55:49;;;;;;;2.80;1.92;;;;;;;16.66;nan;101089.78;5012586;28;20064;-72
2022/07/07 00:58:14;;;;;;;2.38;1.70;;;;;;;16.66;nan;101093.31;5006607;28;20045;-72
2022/07/07 01:00:41;;;;;;;3.33;1.80;;;;;;;16.66;nan;101085.28;5007015;28;20030;-72
2022/07/07 01:03:08;;;;;;;3.03;1.70;;;;;;;16.66;nan;101079.94;5006048;28;20076;-72
2022/07/07 01:05:35;;;;;;;1.88;1.40;;;;;;;16.67;nan;101078.09;5007372;28;20449;-72
2022/07/07 01:08:03;;;;;;;2.38;1.60;;;;;;;16.67;nan;101073.59;5004792;28;20117;-72
2022/07/07 01:10:28;;;;;;;2.10;1.60;;;;;;;16.65;nan;101074.78;5000876;28;20116;-70
2022/07/07 01:12:53;;;;;;;2.30;1.40;;;;;;;16.61;nan;101073.47;5000913;28;20045;-72
2022/07/07 01:15:19;;;;;;;3.00;1.70;;;;;;;16.59;nan;101070.13;5006202;28;20434;-72
2022/07/07 01:17:44;;;;;;;2.30;1.58;;;;;;;16.58;nan;101068.50;5007334;28;20488;-72
2022/07/07 01:20:11;;;;;;;1.92;1.52;;;;;;;16.56;nan;101069.50;5006689;28;20034;-73
2022/07/07 01:22:38;;;;;;;1.85;1.33;;;;;;;16.54;nan;101068.00;5007751;28;20045;-73
2022/07/07 01:25:05;;;;;;;1.90;1.30;;;;;;;16.51;nan;101068.38;5007768;28;20173;-72
2022/07/07 01:27:30;;;;;;;2.17;1.50;;;;;;;16.39;nan;101069.78;5007140;28;20042;-72
2022/07/07 01:29:57;;;;;;;1.75;1.40;;;;;;;16.27;nan;101069.34;5009144;28;20464;-72
2022/07/07 01:32:23;;;;;;;4.20;1.55;;;;;;;16.15;nan;101068.91;5005862;28;20046;-72
2022/07/07 01:34:49;;;;;;;2.33;1.50;;;;;;;16.05;nan;101065.66;5007891;28;20036;-73
2022/07/07 01:37:15;;;;;;;2.05;1.25;;;;;;;15.97;nan;101066.53;5006892;28;20558;-73
2022/07/07 01:39:42;;;;;;;4.18;1.70;;;;;;;15.91;nan;101059.19;5007442;28;20061;-72
2022/07/07 01:42:08;;;;;;;3.92;1.58;;;;;;;15.88;nan;101051.56;5006143;28;20467;-72
2022/07/07 01:44:34;;;;;;;3.63;2.05;;;;;;;15.85;nan;101051.88;5007741;28;20080;-72
2022/07/07 01:47:00;;;;;;;3.85;2.13;;;;;;;15.85;nan;101043.88;5007926;28;20418;-73
2022/07/07 01:49:27;;;;;;;2.78;1.83;;;;;;;15.86;nan;101037.56;5007364;28;20071;-73
2022/07/07 01:51:52;;;;;;;2.60;1.95;;;;;;;15.84;nan;101043.06;5007128;28;20041;-72
2022/07/07 01:54:18;;;;;;;3.47;2.10;;;;;;;15.82;nan;101041.56;5004678;28;20147;-72
2022/07/07 01:56:45;;;;;;;4.03;2.33;;;;;;;15.81;nan;101039.91;5007639;28;20137;-73
2022/07/07 01:59:10;;;;;;;2.72;1.90;;;;;;;15.79;nan;101037.41;5007901;28;20037;-73
2022/07/07 02:01:36;;;;;;;4.20;1.75;;;;;;;15.77;nan;101046.59;5011698;28;20034;-72
2022/07/07 02:04:01;;;;;;;3.15;2.40;;;;;;;15.77;nan;101038.59;5012791;28;20026;-73
2022/07/07 02:06:26;;;;;;;3.00;2.20;;;;;;;15.74;nan;101034.44;5010912;28;20042;-72
2022/07/07 02:08:51;;;;;;;;;;;;;;;15.73;nan;101030.13;5011972;28;20353;-73
2022/07/07 02:11:17;;;;;;;3.87;1.93;;;;;;;15.76;nan;101034.28;5009703;28;19917;-73
2022/07/07 02:13:45;;;;;;;3.60;1.98;;;;;;;15.79;nan;101033.91;4992113;28;20052;-73
2022/07/07 02:16:14;;;;;;;6.13;1.92;;;;;;;15.82;nan;101020.22;5009777;28;20145;-72
2022/07/07 02:18:41;;;;;;;2.35;1.50;;;;;;;15.87;nan;101028.53;5010407;28;20092;-73
2022/07/07 02:21:08;;;;;;;2.85;1.50;;;;;;;15.92;nan;101027.03;5010037;28;20137;-73
2022/07/07 02:23:33;;;;;;;3.53;1.83;;;;;;;15.97;nan;101031.84;5010120;28;20073;-74
2022/07/07 02:25:59;;;;;;;2.70;1.58;;;;;;;15.98;nan;101027.34;5010511;28;20472;-73
2022/07/07 02:28:26;;;;;;;2.65;1.70;;;;;;;15.98;nan;101027.34;5007884;28;20030;-72
2022/07/07 02:30:55;;;;;;;4.13;1.90;;;;;;;15.99;nan;101024.47;4993102;28;20399;-73
2022/07/07 02:33:22;;;;;;;3.03;1.88;;;;;;;16.00;nan;101023.47;5011804;28;20042;-73
2022/07/07 02:35:48;;;;;;;3.90;2.00;;;;;;;16.03;nan;101024.97;5009252;28;20527;-73
2022/07/07 02:38:14;;;;;;;3.33;1.80;;;;;;;16.06;nan;101027.28;5008559;28;20034;-73
2022/07/07 02:40:41;;;;;;;3.10;1.92;;;;;;;16.07;nan;101019.09;5010267;28;20050;-73
2022/07/07 02:43:06;;;;;;;3.28;2.42;;;;;;;16.07;nan;101027.09;5008785;28;20328;-73
2022/07/07 02:45:31;;;;;;;2.83;2.00;;;;;;;16.06;nan;101025.44;5004503;28;20109;-73
2022/07/07 02:47:57;;;;;;;3.08;2.20;;;;;;;16.07;nan;101024.44;5012473;28;20041;-73
2022/07/07 02:50:22;;;;;;;2.60;1.80;;;;;;;16.10;nan;101023.25;5008879;28;20161;-73
2022/07/07 02:52:48;;;;;;;3.97;1.90;;;;;;;16.10;nan;101024.09;5008819;28;20100;-73
2022/07/07 02:55:13;;;;;;;3.42;1.92;;;;;;;16.11;nan;101014.22;5008685;28;20026;-73
2022/07/07 02:57:38;;;;;;;4.22;1.98;;;;;;;16.14;nan;101016.56;4992065;28;20107;-73
2022/07/07 03:00:05;;;;;;;4.13;2.20;;;;;;;16.16;nan;101024.38;5008191;28;20049;-73
2022/07/07 03:02:30;;;;;;;3.15;1.73;;;;;;;16.16;nan;101017.22;5010071;28;20065;-73
2022/07/07 03:04:56;;;;;;;2.88;1.70;;;;;;;16.20;nan;101017.69;5010667;28;20026;-73
2022/07/07 03:07:21;;;;;;;2.47;1.73;;;;;;;16.21;nan;101019.34;5009120;28;20034;-73
2022/07/07 03:09:47;;;;;;;3.45;1.55;;;;;;;16.24;nan;101022.50;5008580;28;20515;-73
2022/07/07 03:12:12;;;;;;;4.32;1.50;;;;;;;16.27;nan;101018.66;5008366;28;20030;-73
2022/07/07 03:14:37;;;;;;;2.83;1.42;;;;;;;16.30;nan;101016.47;5009148;28;20042;-73
2022/07/07 03:17:03;;;;;;;2.85;1.40;;;;;;;16.32;nan;101011.75;4992081;28;20041;-72
2022/07/07 03:19:28;;;;;;;2.80;1.67;;;;;;;16.34;nan;100995.56;5009911;28;20037;-73
2022/07/07 03:21:54;;;;;;;3.33;1.67;;;;;;;16.33;nan;100989.41;5011494;28;20030;-73
2022/07/07 03:24:19;;;;;;;2.95;1.50;;;;;;;16.33;nan;100992.09;5009192;28;20403;-73
2022/07/07 03:26:44;;;;;;;2.40;1.63;;;;;;;16.38;nan;100990.72;5010373;28;20049;-73
2022/07/07 03:29:09;;;;;;;2.73;1.73;;;;;;;16.41;nan;100995.69;5010476;28;20069;-73
2022/07/07 03:31:35;;;;;;;2.17;1.50;;;;;;;16.45;nan;101011.19;4992507;28;20285;-73
2022/07/07 03:34:00;;;;;;;3.47;1.30;;;;;;;16.49;nan;101008.97;5011492;28;20038;-74
2022/07/07 03:36:25;;;;;;;2.35;1.75;;;;;;;16.51;nan;101007.78;5009243;28;20890;-73
2022/07/07 03:38:51;;;;;;;2.53;1.52;;;;;;;16.55;nan;101011.75;5008897;28;20033;-73
2022/07/07 03:41:16;;;;;;;4.57;1.50;;;;;;;16.58;nan;101004.41;5007854;28;20455;-74
2022/07/07 03:43:41;;;;;;;1.83;1.40;;;;;;;16.58;nan;101002.56;5008526;28;20566;-72
2022/07/07 03:46:07;;;;;;;1.75;1.40;;;;;;;16.60;nan;101002.41;5006261;28;20041;-74
2022/07/07 03:48:33;;;;;;;2.53;1.50;;;;;;;16.58;nan;100999.91;5007684;28;20121;-73
2022/07/07 03:50:58;;;;;;;5.90;1.83;;;;;;;16.59;nan;100988.22;5008272;28;20172;-73
2022/07/07 03:53:23;;;;;;;2.70;1.60;;;;;;;16.56;nan;100983.22;5006858;28;20041;-73
2022/07/07 03:55:49;;;;;;;3.83;1.60;;;;;;;16.54;nan;100980.75;4990924;28;20037;-73
2022/07/07 03:58:15;;;;;;;2.63;1.55;;;;;;;16.51;nan;100990.94;5006928;28;20045;-73
2022/07/07 04:00:40;;;;;;;2.58;1.70;;;;;;;16.52;nan;100987.28;5008933;28;20038;-73
2022/07/07 04:03:05;;;;;;;3.28;1.70;;;;;;;16.53;nan;100988.94;5010295;28;20392;-72
2022/07/07 04:05:31;;;;;;;3.35;1.60;;;;;;;16.61;nan;100985.34;5009187;28;20589;-73
2022/07/07 04:07:56;;;;;;;3.08;1.45;;;;;;;16.71;nan;100991.28;5005894;28;20398;-73
2022/07/07 04:10:21;;;;;;;2.25;1.42;;;;;;;16.79;nan;100985.06;5006976;28;20111;-74
2022/07/07 04:12:46;;;;;;;2.88;1.48;;;;;;;16.83;nan;100984.53;5007143;28;20061;-73
2022/07/07 04:15:12;;;;;;;3.25;1.77;;;;;;;16.87;nan;100976.97;5007378;28;20046;-74
2022/07/07 04:17:37;;;;;;;2.47;1.50;;;;;;;16.92;nan;100978.09;5007655;28;20208;-73
2022/07/07 04:20:04;;;;;;;2.75;1.60;;;;;;;16.99;nan;100986.19;5007748;28;20054;-74
2022/07/07 04:22:29;;;;;;;2.10;1.40;;;;;;;17.04;nan;100978.47;5007253;28;20583;-73
2022/07/07 04:24:55;;;;;;;3.10;1.60;;;;;;;17.04;nan;100970.47;4991002;28;20128;-73
2022/07/07 04:27:20;;;;;;;4.18;1.50;;;;;;;17.06;nan;100975.63;5007679;28;20113;-73
2022/07/07 04:29:45;;;;;;;3.47;1.40;;;;;;;17.07;nan;100972.75;5006567;28;20133;-73
2022/07/07 04:32:10;;;;;;;2.60;1.35;;;;;;;17.11;nan;100960.72;5007119;28;20125;-73
2022/07/07 04:34:36;;;;;;;3.28;1.55;;;;;;;17.13;nan;100966.66;5010215;28;20511;-73
2022/07/07 04:37:01;;;;;;;2.25;1.30;;;;;;;17.18;nan;100958.97;5010165;28;20060;-73
2022/07/07 04:39:27;;;;;;;2.20;1.35;;;;;;;17.23;nan;100960.22;5006679;28;20026;-72
2022/07/07 04:41:52;;;;;;;2.45;1.58;;;;;;;17.27;nan;100965.00;5007846;28;20125;-73
2022/07/07 04:44:17;;;;;;;2.15;1.38;;;;;;;17.31;nan;100960.16;5007131;28;20517;-73
2022/07/07 04:46:43;;;;;;;2.28;1.30;;;;;;;17.34;nan;100959.75;5007202;28;20419;-73
2022/07/07 04:49:08;;;;;;;3.55;1.33;;;;;;;17.34;nan;100959.75;5007126;28;20034;-73
2022/07/07 04:51:33;;;;;;;2.50;1.52;;;;;;;17.28;nan;100963.16;5006062;28;20037;-73
2022/07/07 04:53:58;;;;;;;2.35;1.30;;;;;;;17.31;nan;100954.81;5007730;28;20084;-73
2022/07/07 04:56:24;;;;;;;3.42;1.45;;;;;;;17.32;nan;100961.78;5006868;28;20364;-74
2022/07/07 04:58:49;;;;;;;4.95;1.60;;;;;;;17.32;nan;100962.63;5007594;28;20038;-73
2022/07/07 05:01:14;;;;;;;2.85;1.40;;;;;;;17.31;nan;100968.16;5007926;28;20053;-73
2022/07/07 05:03:40;;;;;;;2.90;1.48;;;;;;;17.32;nan;100959.13;5008596;28;20423;-73
2022/07/07 05:06:05;;;;;;;2.83;1.30;;;;;;;17.35;nan;100961.41;5004465;28;20511;-73
2022/07/07 05:08:31;;;;;;;3.90;1.60;;;;;;;17.35;nan;100964.94;5006835;28;20069;-73
2022/07/07 05:10:56;;;;;;;4.07;1.60;;;;;;;17.30;nan;100953.94;5007685;28;20391;-73
2022/07/07 05:13:22;;;;;;;2.45;1.27;;;;;;;17.31;nan;100958.28;5006750;28;20038;-72
2022/07/07 05:15:48;;;;;;;2.30;1.50;;;;;;;17.25;nan;100948.34;5006984;28;20041;-73
2022/07/07 05:18:14;;;;;;;4.13;1.45;;;;;;;17.27;nan;100954.31;5006104;28;20121;-74
2022/07/07 05:20:40;;;;;;;3.13;1.55;;;;;;;17.30;nan;100953.13;5006636;28;20503;-73
2022/07/07 05:23:05;;;;;;;3.03;1.40;;;;;;;17.34;nan;100947.22;5006530;28;20038;-73
2022/07/07 05:25:30;;;;;;;4.40;1.45;;;;;;;17.37;nan;100956.72;5005939;28;20038;-73
2022/07/07 05:27:56;;;;;;;5.22;1.60;;;;;;;17.40;nan;100953.69;5006282;28;20480;-74
2022/07/07 05:30:21;;;;;;;3.92;1.50;;;;;;;17.43;nan;100949.81;5006345;28;20125;-73
2022/07/07 05:32:46;;;;;;;3.55;1.58;;;;;;;17.43;nan;100947.13;4998502;28;20035;-74
2022/07/07 05:35:12;;;;;;;2.50;1.40;;;;;;;17.51;nan;100941.69;5008912;28;20128;-73
2022/07/07 05:37:37;;;;;;;3.50;1.30;;;;;;;17.53;nan;100945.81;5011646;28;20117;-73
2022/07/07 05:40:03;;;;;;;3.08;1.60;;;;;;;17.58;nan;100953.28;5012520;28;20069;-74
2022/07/07 05:42:28;;;;;;;3.80;1.45;;;;;;;17.63;nan;100945.50;5013060;28;20038;-73
2022/07/07 05:44:54;;;;;;;3.20;1.63;;;;;;;17.62;nan;100944.69;5008543;28;20065;-74
2022/07/07 05:47:19;;;;;;;3.42;1.70;;;;;;;17.66;nan;100930.94;5010021;28;20036;-74
2022/07/07 05:49:44;;;;;;;3.63;1.70;;;;;;;17.66;nan;100938.97;5010521;28;20387;-73
2022/07/07 05:52:11;;;;;;;2.55;2.00;;;;;;;17.66;nan;100941.63;5006516;28;20041;-73
2022/07/07 05:54:36;;;;;;;3.67;1.67;;;;;;;17.68;nan;100942.28;4985728;28;20042;-73
2022/07/07 05:57:02;;;;;;;2.77;1.70;;;;;;;17.71;nan;100957.94;5011589;28;20034;-72
2022/07/07 05:59:27;;;;;;;4.10;1.88;;;;;;;17.71;nan;100953.44;5012214;28;20295;-72
2022/07/07 06:01:52;;;;;;;2.45;1.52;;;;;;;17.73;nan;100951.41;4994692;28;20406;-73
2022/07/07 06:04:17;;;;;;;2.10;1.50;;;;;;;17.75;nan;100949.34;5011790;28;20045;-73
2022/07/07 06:06:43;;;;;;;3.50;1.50;;;;;;;17.81;nan;100942.47;5012787;28;20318;-72
2022/07/07 06:09:08;;;;;;;4.95;1.67;;;;;;;17.89;nan;100945.03;5012500;28;20499;-73
2022/07/07 06:11:33;;;;;;;4.32;1.70;;;;;;;18.04;nan;100950.31;5012518;28;20061;-73
2022/07/07 06:13:58;;;;;;;3.95;1.50;;;;;;;18.22;nan;100948.03;4994426;28;20045;-72
2022/07/07 06:16:40;;;;;;;3.92;1.60;;;;;;;18.42;nan;100960.75;5011952;28;20048;-73
2022/07/07 06:19:06;;;;;;;4.15;1.60;;;;;;;18.70;nan;100960.78;5012352;28;20045;-72
2022/07/07 06:21:31;;;;;;;2.83;1.50;;;;;;;18.89;nan;100961.97;5011782;28;20080;-73
2022/07/07 06:23:56;;;;;;;3.70;1.50;;;;;;;19.02;nan;100948.69;5012272;28;20461;-73
2022/07/07 06:26:22;;;;;;;3.67;1.80;;;;;;;19.14;nan;100954.31;5012019;28;20404;-73
2022/07/07 06:28:47;;;;;;;4.07;1.53;;;;;;;19.26;nan;100959.94;5011935;28;20116;-73
2022/07/07 06:31:12;;;;;;;3.47;1.50;;;;;;;19.31;nan;100960.19;5012085;28;20276;-72
2022/07/07 06:33:38;;;;;;;2.80;1.50;;;;;;;19.40;nan;100959.00;5012098;28;20137;-72
2022/07/07 06:36:03;;;;;;;2.67;1.47;;;;;;;19.54;nan;100965.22;5011913;28;20126;-73
2022/07/07 06:38:29;;;;;;;3.75;1.50;;;;;;;19.54;nan;100965.22;5011229;28;20288;-72
2022/07/07 06:40:58;;;;;;;2.38;1.30;;;;;;;19.65;nan;100964.66;4994221;28;20059;-73
2022/07/07 06:43:24;;;;;;;2.03;1.20;;;;;;;19.75;nan;100961.63;5011597;28;20046;-73
2022/07/07 06:45:49;;;;;;;2.75;1.50;;;;;;;19.92;nan;100967.44;5011804;28;20038;-72
2022/07/07 06:48:14;;;;;;;2.70;1.50;;;;;;;20.01;nan;100966.22;5011111;28;20033;-73
2022/07/07 06:50:40;;;;;;;4.68;1.80;;;;;;;19.98;nan;100963.97;5011980;28;20118;-72
2022/07/07 06:53:05;;;;;;;2.85;1.20;;;;;;;19.95;nan;100964.38;5010722;28;20515;-73
2022/07/07 06:55:30;;;;;;;3.38;1.52;;;;;;;19.72;nan;100827.88;5012363;28;20038;-73
2022/07/07 06:57:56;;;;;;;2.90;1.55;;;;;;;;;;4994094;28;20433;-72
2022/07/07 07:00:21;;;;;;;5.63;1.50;;;;;;;19.34;nan;100814.97;5011270;28;20041;-73
2022/07/07 07:02:48;;;;;;;4.70;1.30;;;;;;;19.28;nan;100821.13;5010790;28;20327;-73
2022/07/07 07:05:14;;;;;;;2.80;1.70;;;;;;;19.15;nan;100811.19;5011775;28;20095;-73
2022/07/07 07:07:40;;;;;;;4.25;1.75;;;;;;;19.08;nan;100810.34;5011292;28;20422;-73
2022/07/07 07:10:05;;;;;;;2.83;1.45;;;;;;;19.08;nan;100800.44;5011067;28;20037;-73
2022/07/07 07:12:31;;;;;;;4.35;1.50;;;;;;;19.06;nan;100810.53;5011278;28;20068;-73
2022/07/07 07:14:56;;;;;;;3.22;1.80;;;;;;;;;;5011198;28;20117;-73
2022/07/07 07:17:21;;;;;;;3.20;1.30;;;;;;;19.09;nan;100802.13;5011261;28;20057;-73
2022/07/07 07:19:47;;;;;;;4.20;1.63;;;;;;;19.04;nan;100809.09;5011658;28;20049;-73
2022/07/07 07:22:12;;;;;;;5.32;1.40;;;;;;;18.92;nan;100800.81;5010329;28;20041;-73
2022/07/07 07:24:37;;;;;;;3.50;1.50;;;;;;;18.85;nan;100816.03;5011344;28;20505;-73
2022/07/07 07:27:03;;;;;;;5.22;1.90;;;;;;;18.91;nan;100825.13;5010934;28;20039;-73
2022/07/07 07:29:28;;;;;;;3.55;1.35;;;;;;;;;;5011164;28;20030;-73
2022/07/07 07:31:53;;;;;;;3.13;1.83;;;;;;;19.02;nan;100821.88;5010334;28;20511;-73
2022/07/07 07:34:18;;;;;;;2.58;1.60;;;;;;;;;;5010845;28;20308;-72
2022/07/07 07:36:44;;;;;;;2.30;1.40;;;;;;;;;;5010881;28;20041;-73
2022/07/07 07:39:09;;;;;;;2.97;1.30;;;;;;;19.43;nan;100829.03;5010764;28;20038;-73
2022/07/07 07:41:34;;;;;;;2.42;1.38;;;;;;;19.53;nan;100829.47;5010286;28;20130;-73
2022/07/07 07:44:00;;;;;;;3.90;2.05;;;;;;;19.43;nan;100780.75;5011008;28;20045;-72
2022/07/07 07:46:25;;;;;;;3.17;1.60;;;;;;;;;;5010078;28;20050;-72
2022/07/07 07:48:50;;;;;;;2.53;1.47;;;;;;;19.26;nan;100812.50;5010709;28;20034;-73
2022/07/07 07:51:15;;;;;;;4.45;1.70;;;;;;;19.24;nan;100810.00;5010315;28;20057;-73
2022/07/07 07:53:41;;;;;;;2.60;1.58;;;;;;;19.39;nan;100780.31;5010896;28;20049;-73
2022/07/07 07:56:06;;;;;;;3.72;1.30;;;;;;;19.64;nan;100863.75;5010217;28;20044;-73
2022/07/07 07:58:32;;;;;;;3.53;1.55;;;;;;;20.05;nan;100955.94;5010151;28;20034;-72
2022/07/07 08:00:58;;;;;;;2.35;1.27;;;;;;;20.27;nan;100948.50;5005127;28;20041;-71
2022/07/07 08:03:23;;;;;;;3.42;1.77;;;;;;;20.46;nan;100936.94;5010540;28;20079;-71
2022/07/07 08:05:48;;;;;;;4.63;1.50;;;;;;;20.63;nan;100936.56;5010813;28;20030;-72
2022/07/07 08:08:14;;;;;;;3.92;1.58;;;;;;;20.84;nan;100946.25;5010385;28;20061;-72
2022/07/07 08:10:39;;;;;;;2.80;1.40;;;;;;;21.21;nan;100950.06;5010798;28;20038;-72
2022/07/07 08:13:04;;;;;;;4.28;1.50;;;;;;;21.29;nan;100952.56;5010611;28;20444;-72
2022/07/07 08:15:30;;;;;;;4.80;1.95;;;;;;;21.05;nan;100953.25;5010232;28;20029;-71
2022/07/07 08:17:55;;;;;;;3.47;1.58;;;;;;;20.91;nan;100957.81;5010386;28;20046;-71
2022/07/07 08:20:20;;;;;;;4.87;1.60;;;;;;;20.79;nan;100949.56;4993102;28;20424;-72
2022/07/07 08:22:46;;;;;;;2.88;1.52;;;;;;;20.69;nan;100957.22;4995892;28;20281;-72
2022/07/07 08:25:11;;;;;;;5.30;1.73;;;;;;;20.65;nan;100947.94;5010743;28;20388;-72
2022/07/07 08:27:36;;;;;;;4.55;1.52;;;;;;;20.66;nan;100944.19;5010162;28;20037;-71
2022/07/07 08:30:05;;;;;;;3.78;1.60;;;;;;;20.66;nan;100944.19;5009934;28;20057;-72
2022/07/07 08:32:30;;;;;;;4.50;1.83;;;;;;;20.56;nan;100941.94;5010121;28;20049;-72
2022/07/07 08:34:56;;;;;;;3.78;1.75;;;;;;;20.51;nan;100949.75;5011018;28;20038;-72
2022/07/07 08:37:21;;;;;;;3.65;1.50;;;;;;;20.34;nan;100944.78;5010419;28;20026;-72
2022/07/07 08:39:46;;;;;;;4.05;1.70;;;;;;;20.21;nan;100939.41;5004102;28;20038;-72
2022/07/07 08:42:12;;;;;;;4.03;2.28;;;;;;;20.21;nan;100933.22;4995151;28;20034;-72
2022/07/07 08:44:37;;;;;;;3.33;1.63;;;;;;;20.22;nan;100934.88;5009986;28;20084;-72
2022/07/07 08:47:03;;;;;;;4.45;1.80;;;;;;;20.44;nan;100939.00;5010909;28;20038;-72
2022/07/07 08:49:29;;;;;;;3.85;1.60;;;;;;;20.70;nan;100932.81;5010071;28;20045;-72
2022/07/07 08:51:56;;;;;;;5.32;1.83;;;;;;;20.87;nan;100940.44;5005091;28;20038;-72
2022/07/07 08:54:23;;;;;;;3.10;1.90;;;;;;;21.03;nan;100942.69;5009066;28;20511;-72
2022/07/07 08:56:48;;;;;;;3.13;1.60;;;;;;;21.23;nan;100939.94;5009955;28;20168;-72
2022/07/07 08:59:14;;;;;;;2.78;1.67;;;;;;;21.40;nan;100941.16;5009357;28;20388;-71
2022/07/07 09:01:40;;;;;;;3.90;1.58;;;;;;;21.54;nan;100941.09;5005823;28;20446;-72
2022/07/07 09:04:06;;;;;;;4.22;1.70;;;;;;;21.72;nan;100935.84;5009394;28;20073;-72
2022/07/07 09:06:32;;;;;;;4.47;1.77;;;;;;;21.97;nan;100943.97;5009955;28;20070;-72
2022/07/07 09:08:59;;;;;;;3.80;1.50;;;;;;;22.21;nan;100936.97;5010341;28;20084;-72
2022/07/07 09:11:30;;;;;;;2.50;1.55;;;;;;;22.21;nan;100931.59;5012721;28;20037;-72
2022/07/07 09:14:13;;;;;;;4.47;1.88;;;;;;;22.16;nan;100933.28;5013872;28;20325;-72
2022/07/07 09:16:39;;;;;;;2.42;1.40;;;;;;;22.22;nan;100929.75;5014651;28;20068;-74
2022/07/07 09:19:16;;;;;;;2.92;1.60;;;;;;;22.40;nan;100927.09;5005582;28;20065;-71
2022/07/07 09:21:44;;;;;;;2.95;1.73;;;;;;;22.54;nan;100933.19;4996888;28;20035;-71
2022/07/07 09:24:11;;;;;;;3.58;1.63;;;;;;;22.42;nan;100933.09;5014069;28;20045;-71
2022/07/07 09:26:43;;;;;;;4.07;1.77;;;;;;;22.23;nan;100928.69;4995271;28;20045;-71
2022/07/07 09:29:14;;;;;;;3.35;1.90;;;;;;;22.11;nan;100925.84;5012799;28;20038;-74
2022/07/07 09:32:00;;;;;;;4.18;1.70;;;;;;;22.01;nan;100928.19;5012013;28;20422;-71
2022/07/07 09:34:28;;;;;;;2.83;1.45;;;;;;;21.87;nan;100923.94;5013323;28;20069;-71
2022/07/07 09:39:41;;;;;;;3.30;1.45;;;;;;;21.58;nan;100918.94;5014446;28;20114;-71
2022/07/07 09:42:26;;;;;;;3.35;1.40;;;;;;;21.57;nan;100921.81;5013734;28;20046;-72
2022/07/07 09:44:58;;;;;;;3.15;1.65;;;;;;;21.50;nan;100929.09;4999174;28;20444;-72
2022/07/07 09:47:24;;;;;;;2.72;1.42;;;;;;;21.49;nan;100938.22;4998460;28;20058;-72
2022/07/07 09:50:04;;;;;;;3.70;1.20;;;;;;;21.51;nan;100936.16;5016146;28;20465;-72
2022/07/07 09:52:31;;;;;;;3.83;1.73;;;;;;;21.56;nan;100945.22;4995656;28;20050;-72
2022/07/07 09:54:59;;;;;;;3.30;1.73;;;;;;;21.57;nan;100948.72;4996547;28;20056;-72
2022/07/07 09:57:24;;;;;;;6.18;2.00;;;;;;;21.60;nan;100942.94;5013029;28;20029;-72
2022/07/07 09:59:50;;;;;;;3.10;1.60;;;;;;;21.60;nan;100946.44;5012786;28;20034;-72
2022/07/07 10:02:23;;;;;;;2.70;1.42;;;;;;;21.72;nan;100943.91;5011455;28;20042;-72
2022/07/07 10:04:52;;;;;;;2.15;1.30;;;;;;;21.89;nan;100949.63;5011584;28;20089;-72
2022/07/07 10:07:20;;;;;;;3.03;1.45;;;;;;;21.96;nan;100938.81;5013101;28;20038;-72
2022/07/07 10:09:50;;;;;;;3.70;1.80;;;;;;;21.96;nan;100947.72;5013707;28;20479;-72
2022/07/07 10:12:16;;;;;;;2.78;1.70;;;;;;;21.90;nan;100948.56;5012565;28;20323;-72
2022/07/07 10:14:43;;;;;;;5.40;2.10;;;;;;;21.81;nan;100944.50;5013568;28;20415;-72
2022/07/07 10:17:10;;;;;;;2.75;1.60;;;;;;;21.71;nan;100949.50;4975773;28;1077829;-72
2022/07/07 10:19:35;;;;;;;3.08;1.70;;;;;;;21.60;nan;100949.16;5014427;28;20108;-72
2022/07/07 10:22:02;;;;;;;2.33;1.40;;;;;;;21.54;nan;100959.94;5013972;28;20038;-72
2022/07/07 10:24:29;;;;;;;4.18;2.00;;;;;;;21.53;nan;100953.72;5013647;28;20034;-71
2022/07/07 10:27:00;;;;;;;3.67;2.03;;;;;;;21.47;nan;100953.75;5013971;28;20498;-72
2022/07/07 10:29:41;;;;;;;4.20;2.00;;;;;;;21.41;nan;100952.75;5013467;28;20054;-72
2022/07/07 10:32:11;;;;;;;3.95;1.50;;;;;;;21.39;nan;100952.09;5012494;28;20104;-72
2022/07/07 10:34:38;;;;;;;2.95;1.60;;;;;;;21.31;nan;100950.47;5013253;28;20398;-72
2022/07/07 10:37:09;;;;;;;3.47;1.60;;;;;;;21.15;nan;100953.63;5012577;28;20164;-72
2022/07/07 10:39:43;;;;;;;3.10;1.45;;;;;;;20.62;nan;100973.34;5012018;28;20055;-73
2022/07/07 10:42:14;;;;;;;1.90;1.50;;;;;;;19.92;nan;100972.81;4991759;28;20181;-73
2022/07/07 10:44:41;;;;;;;4.03;2.00;;;;;;;19.52;nan;100988.72;4984888;28;20430;-73
2022/07/07 10:47:13;;;;;;;3.47;1.75;;;;;;;19.33;nan;100986.78;5012525;28;20193;-74
2022/07/07 10:49:45;;;;;;;2.05;1.40;;;;;;;19.40;nan;100979.59;5012223;28;20038;-73
2022/07/07 10:52:13;;;;;;;2.47;1.50;;;;;;;19.84;nan;100991.78;5011564;28;20038;-73
2022/07/07 10:54:48;;;;;;;3.13;1.70;;;;;;;20.44;nan;100987.34;5012000;28;20040;-73
2022/07/07 10:57:23;;;;;;;4.10;1.50;;;;;;;21.17;nan;100991.91;5012142;28;20026;-73
2022/07/07 11:00:01;;;;;;;2.92;1.20;;;;;;;21.87;nan;100996.63;5011858;28;20033;-73
2022/07/07 11:02:31;;;;;;;2.58;1.20;;;;;;;23.27;nan;100999.94;5007379;28;20451;-73
2022/07/07 11:05:01;;;;;;;1.38;0.90;;;;;;;24.55;nan;100992.66;4992624;28;20142;-73
2022/07/07 11:07:28;;;;;;;1.48;0.77;;;;;;;25.29;nan;100985.94;4992718;28;20399;-74
2022/07/07 11:10:03;;;;;;;1.85;0.90;;;;;;;25.60;nan;100995.53;4991722;28;20395;-73
2022/07/07 11:12:45;;;;;;;1.42;0.80;;;;;;;24.41;nan;101007.41;4991611;28;20069;-74
2022/07/07 11:15:22;;;;;;;6.57;1.13;;;;;;;22.23;nan;101039.97;4991804;28;20570;-76
2022/07/07 11:17:56;;;;;;;3.92;1.05;;;;;;;20.13;nan;101055.88;4992170;28;20496;-77
2022/07/07 11:20:24;;;;;;;1.73;1.08;;;;;;;19.10;nan;101036.97;4990042;28;20038;-77
2022/07/07 11:22:55;;;;;;;2.35;0.90;;;;;;;18.52;nan;101046.13;4991565;28;20034;-78
2022/07/07 11:25:22;;;;;;;1.10;0.90;;;;;;;18.14;nan;101043.66;4992214;28;20104;-78
2022/07/07 11:27:49;;;;;;;1.30;0.70;;;;;;;17.93;nan;101053.34;4992404;28;20447;-78
2022/07/07 11:30:16;;;;;;;2.20;0.70;;;;;;;17.91;nan;101059.88;4992179;28;20516;-78
2022/07/07 11:32:42;;;;;;;1.08;0.80;;;;;;;17.81;nan;101050.31;4991477;28;20104;-77
2022/07/07 11:35:10;;;;;;;1.25;0.80;;;;;;;17.74;nan;101059.22;4991198;28;20034;-77
2022/07/07 11:37:37;;;;;;;1.20;0.88;;;;;;;17.70;nan;101061.44;4992496;28;20114;-78
2022/07/07 11:40:04;;;;;;;1.35;0.90;;;;;;;17.79;nan;101067.53;4994366;28;20038;-76
2022/07/07 11:42:36;;;;;;;1.63;0.82;;;;;;;17.86;nan;101063.13;4993630;28;20030;-76
2022/07/07 11:45:04;;;;;;;1.52;0.93;;;;;;;17.83;nan;101058.97;5011618;28;20231;-77